Time;durP1;ratioP1;P1;durP2;ratioP2;P2;SDS_P1;SDS_P2;PMS_P1;PMS_P2;Temp;Humidity;BMP_temperature;BMP_pressure;BME280_temperature;BME280_humidity;BME280_pressure;Samples;Min_cycle;Max_cycle;Signal;HPM_P1;HPM_P2
2023/11/16 00:00:19;;;;;;;6.47;3.37;;;11.90;99.90;;;;;;5038602;28;20424;-74
2023/11/16 00:02:45;;;;;;;7.45;3.50;;;11.90;99.90;;;;;;5027391;28;20946;-74
2023/11/16 00:05:13;;;;;;;5.90;2.90;;;11.90;99.90;;;;;;5047263;28;20255;-74
2023/11/16 00:07:45;;;;;;;6.90;3.17;;;12.00;99.90;;;;;;5037766;28;20444;-74
2023/11/16 00:10:16;;;;;;;9.27;3.27;;;11.90;99.90;;;;;;5009670;28;20447;-75
2023/11/16 00:12:42;;;;;;;2.50;2.30;;;11.90;99.90;;;;;;5040779;28;20820;-75
2023/11/16 00:15:11;;;;;;;9.20;3.23;;;11.90;99.90;;;;;;5042166;28;20444;-74
2023/11/16 00:17:37;;;;;;;8.45;3.35;;;11.80;99.90;;;;;;5040087;28;20467;-74
2023/11/16 00:20:07;;;;;;;4.83;3.37;;;11.80;99.90;;;;;;5037514;28;20724;-74
2023/11/16 00:22:36;;;;;;;6.90;3.30;;;11.90;99.90;;;;;;5036551;28;20433;-74
2023/11/16 00:25:06;;;;;;;5.27;3.40;;;11.90;99.90;;;;;;5037865;28;20535;-74
2023/11/16 00:27:34;;;;;;;6.15;2.95;;;11.90;99.90;;;;;;5039132;28;20511;-74
2023/11/16 00:30:05;;;;;;;7.30;3.30;;;11.90;99.90;;;;;;5051070;28;20185;-74
2023/11/16 00:32:32;;;;;;;7.37;3.17;;;11.90;99.90;;;;;;5054103;28;20441;-74
2023/11/16 00:35:06;;;;;;;5.80;2.77;;;11.90;99.90;;;;;;5060190;28;20994;-74
2023/11/16 00:37:32;;;;;;;9.33;3.30;;;11.90;99.90;;;;;;5036890;28;20963;-74
2023/11/16 00:40:01;;;;;;;8.27;3.70;;;11.80;99.90;;;;;;5044620;28;20445;-74
2023/11/16 00:42:31;;;;;;;6.75;2.85;;;11.80;99.90;;;;;;5027272;28;20870;-74
2023/11/16 00:45:02;;;;;;;6.63;2.97;;;11.80;99.90;;;;;;5036877;28;20710;-74
2023/11/16 00:47:34;;;;;;;7.63;3.15;;;11.90;99.90;;;;;;5049316;28;20264;-74
2023/11/16 00:50:01;;;;;;;6.57;3.20;;;11.90;99.90;;;;;;5026855;28;20765;-74
2023/11/16 00:52:27;;;;;;;5.87;3.37;;;12.00;99.90;;;;;;5028840;28;20931;-74
2023/11/16 00:54:55;;;;;;;6.70;3.27;;;12.00;99.90;;;;;;5052959;28;21006;-75
2023/11/16 00:57:23;;;;;;;8.73;3.80;;;12.00;99.90;;;;;;5054767;28;21232;-74
2023/11/16 00:59:49;;;;;;;7.80;3.47;;;11.90;99.90;;;;;;5049744;28;20545;-74
2023/11/16 01:02:18;;;;;;;8.40;3.30;;;11.90;99.90;;;;;;5053561;28;20429;-74
2023/11/16 01:04:46;;;;;;;6.28;3.28;;;11.90;99.90;;;;;;5056787;28;20814;-74
2023/11/16 01:07:12;;;;;;;5.43;3.10;;;11.90;99.90;;;;;;5057518;28;20237;-74
2023/11/16 01:09:42;;;;;;;5.57;3.33;;;11.90;99.90;;;;;;5055320;28;20532;-74
2023/11/16 01:12:14;;;;;;;5.18;3.08;;;11.90;99.90;;;;;;5040597;28;20480;-74
2023/11/16 01:14:44;;;;;;;7.27;3.10;;;11.80;99.90;;;;;;5054682;28;20456;-74
2023/11/16 01:17:18;;;;;;;7.87;3.17;;;11.90;99.90;;;;;;5053762;28;20460;-74
2023/11/16 01:19:51;;;;;;;6.53;3.10;;;11.90;99.90;;;;;;5033624;28;20440;-74
2023/11/16 01:22:21;;;;;;;8.20;2.97;;;11.80;99.90;;;;;;5032884;28;20497;-74
2023/11/16 01:24:51;;;;;;;8.27;3.10;;;11.80;99.90;;;;;;5057691;28;20435;-74
2023/11/16 01:27:26;;;;;;;6.80;3.23;;;11.80;99.90;;;;;;5042312;28;21082;-74
2023/11/16 01:29:57;;;;;;;5.03;3.03;;;11.80;99.90;;;;;;5021134;28;20517;-74
2023/11/16 01:32:28;;;;;;;5.80;2.50;;;11.70;99.90;;;;;;5032298;28;20438;-74
2023/11/16 01:34:59;;;;;;;4.17;2.77;;;11.70;99.90;;;;;;5036434;28;21270;-74
2023/11/16 01:37:25;;;;;;;3.60;2.80;;;11.70;99.90;;;;;;5036484;28;20509;-74
2023/11/16 01:39:55;;;;;;;6.53;3.03;;;11.70;99.90;;;;;;5058621;28;21164;-74
2023/11/16 01:42:24;;;;;;;7.37;3.40;;;11.70;99.90;;;;;;5028894;28;21449;-74
2023/11/16 01:44:52;;;;;;;6.57;3.83;;;11.70;99.90;;;;;;5031028;28;20461;-74
2023/11/16 01:47:20;;;;;;;10.03;3.10;;;11.70;99.90;;;;;;5045583;28;21076;-74
2023/11/16 01:49:46;;;;;;;4.63;3.00;;;11.70;99.90;;;;;;5037292;28;20518;-74
2023/11/16 01:52:14;;;;;;;5.50;3.20;;;11.70;99.90;;;;;;5058639;28;20952;-74
2023/11/16 01:54:41;;;;;;;5.67;2.93;;;11.70;99.90;;;;;;5040415;28;20467;-75
2023/11/16 01:57:11;;;;;;;3.47;2.57;;;11.70;99.90;;;;;;5041063;28;21065;-74
2023/11/16 01:59:38;;;;;;;7.50;3.70;;;11.70;99.90;;;;;;5043066;28;20429;-74
2023/11/16 02:02:10;;;;;;;5.07;3.00;;;11.70;99.90;;;;;;5055367;28;20797;-75
2023/11/16 02:04:41;;;;;;;7.43;3.43;;;11.70;99.90;;;;;;5035075;28;20441;-74
2023/11/16 02:07:07;;;;;;;5.20;2.93;;;11.70;99.90;;;;;;5043976;28;20792;-74
2023/11/16 02:09:33;;;;;;;5.13;3.35;;;11.70;99.90;;;;;;5043464;28;20754;-74
2023/11/16 02:12:04;;;;;;;11.27;2.70;;;11.70;99.90;;;;;;5054566;28;20187;-75
2023/11/16 02:14:30;;;;;;;7.33;3.13;;;11.70;99.90;;;;;;5031924;28;20992;-74
2023/11/16 02:16:56;;;;;;;5.60;2.93;;;11.70;99.90;;;;;;5038189;28;20498;-74
2023/11/16 02:19:30;;;;;;;6.53;3.05;;;11.70;99.90;;;;;;5071917;28;21226;-74
2023/11/16 02:22:03;;;;;;;5.37;3.07;;;11.80;99.90;;;;;;5054454;28;20195;-74
2023/11/16 02:24:30;;;;;;;5.03;2.58;;;11.80;99.90;;;;;;5059228;28;20447;-74
2023/11/16 02:26:59;;;;;;;6.63;3.37;;;11.80;99.90;;;;;;5054509;28;20811;-74
2023/11/16 02:29:26;;;;;;;5.17;2.57;;;11.80;99.90;;;;;;5032424;28;20471;-74
2023/11/16 02:31:53;;;;;;;7.10;2.97;;;11.80;99.90;;;;;;5056821;28;20428;-74
2023/11/16 02:34:19;;;;;;;7.50;3.73;;;11.70;99.90;;;;;;5049518;28;20452;-74
2023/11/16 02:36:45;;;;;;;4.60;2.53;;;11.70;99.90;;;;;;5051142;28;20470;-74
2023/11/16 02:39:15;;;;;;;8.67;2.73;;;11.70;99.90;;;;;;5052845;28;20446;-74
2023/11/16 02:41:42;;;;;;;9.00;3.23;;;11.70;99.90;;;;;;5052363;28;20489;-74
2023/11/16 02:44:11;;;;;;;5.70;2.60;;;11.70;99.90;;;;;;5055348;28;20485;-74
2023/11/16 02:46:39;;;;;;;3.87;2.50;;;11.70;99.90;;;;;;5054090;28;20550;-74
2023/11/16 02:49:08;;;;;;;6.77;2.33;;;11.60;99.90;;;;;;5038410;28;20434;-74
2023/11/16 02:51:36;;;;;;;5.27;3.37;;;11.60;99.90;;;;;;5055294;28;20424;-74
2023/11/16 02:54:06;;;;;;;3.33;2.47;;;11.60;99.90;;;;;;5056559;28;20440;-74
2023/11/16 02:56:33;;;;;;;3.83;2.90;;;11.60;99.90;;;;;;5021219;28;21024;-74
2023/11/16 02:59:01;;;;;;;6.50;2.80;;;11.60;99.90;;;;;;5043033;28;20503;-74
2023/11/16 03:01:27;;;;;;;4.37;2.63;;;11.60;99.90;;;;;;5058198;28;20557;-74
2023/11/16 03:03:54;;;;;;;6.20;2.80;;;11.60;99.90;;;;;;5041567;28;20462;-74
2023/11/16 03:06:20;;;;;;;4.87;2.80;;;11.60;99.90;;;;;;5035948;28;20871;-74
2023/11/16 03:08:51;;;;;;;4.77;3.43;;;11.60;99.90;;;;;;5019722;28;20457;-74
2023/11/16 03:11:17;;;;;;;4.20;3.10;;;11.60;99.90;;;;;;5056736;28;20426;-74
2023/11/16 03:13:43;;;;;;;8.27;2.80;;;11.60;99.90;;;;;;5056276;28;20433;-74
2023/11/16 03:16:09;;;;;;;4.80;2.63;;;11.60;99.90;;;;;;5022673;28;20220;-74
2023/11/16 03:18:35;;;;;;;5.23;2.63;;;11.60;99.90;;;;;;5053678;28;20442;-74
2023/11/16 03:21:02;;;;;;;6.87;2.90;;;11.60;99.90;;;;;;5060387;28;20424;-74
2023/11/16 03:23:28;;;;;;;5.85;2.80;;;11.60;99.90;;;;;;5055737;28;20806;-75
2023/11/16 03:25:57;;;;;;;7.50;3.20;;;11.60;99.90;;;;;;5051537;28;20441;-74
2023/11/16 03:28:25;;;;;;;5.80;3.17;;;11.60;99.90;;;;;;5056706;28;20461;-74
2023/11/16 03:30:57;;;;;;;4.85;2.65;;;11.60;99.90;;;;;;5054689;28;20458;-74
2023/11/16 03:33:23;;;;;;;4.70;2.80;;;11.60;99.90;;;;;;5057499;28;20190;-75
2023/11/16 03:35:54;;;;;;;3.90;2.90;;;11.70;99.90;;;;;;5055448;28;20465;-74
2023/11/16 03:38:24;;;;;;;4.50;2.77;;;11.70;99.90;;;;;;5047779;28;20557;-74
2023/11/16 03:40:50;;;;;;;4.43;2.80;;;11.60;99.90;;;;;;5033154;28;20429;-74
2023/11/16 03:43:17;;;;;;;8.63;2.90;;;11.60;99.90;;;;;;5035744;28;21333;-74
2023/11/16 03:45:45;;;;;;;5.60;2.80;;;11.60;99.90;;;;;;5050884;28;20915;-74
2023/11/16 03:48:14;;;;;;;3.93;3.33;;;11.60;99.90;;;;;;5030186;28;20858;-74
2023/11/16 03:50:40;;;;;;;6.45;3.10;;;11.60;99.90;;;;;;5026557;28;21132;-74
2023/11/16 03:53:08;;;;;;;8.67;3.30;;;11.60;99.90;;;;;;5025527;28;21027;-74
2023/11/16 03:55:36;;;;;;;4.67;2.63;;;11.60;99.90;;;;;;5030916;28;20478;-74
2023/11/16 03:58:03;;;;;;;6.27;3.03;;;11.60;99.90;;;;;;5028094;28;20468;-74
2023/11/16 04:00:30;;;;;;;5.82;3.50;;;11.60;99.90;;;;;;5052044;28;20446;-74
2023/11/16 04:03:03;;;;;;;7.70;4.20;;;11.60;99.90;;;;;;5036016;28;20213;-74
2023/11/16 04:05:30;;;;;;;9.63;3.27;;;11.60;99.90;;;;;;5056359;28;20460;-74
2023/11/16 04:07:59;;;;;;;7.38;3.10;;;11.60;99.90;;;;;;5020988;28;20456;-74
2023/11/16 04:10:25;;;;;;;5.40;3.30;;;11.60;99.90;;;;;;5056819;28;20869;-74
2023/11/16 04:12:51;;;;;;;6.27;3.17;;;11.70;99.90;;;;;;5037154;28;20437;-74
2023/11/16 04:15:19;;;;;;;3.17;2.83;;;11.60;99.90;;;;;;5058012;28;20455;-74
2023/11/16 04:17:45;;;;;;;9.00;3.97;;;11.60;99.90;;;;;;5035137;28;20483;-74
2023/11/16 04:20:14;;;;;;;4.43;2.90;;;11.60;99.90;;;;;;5058077;28;20574;-74
2023/11/16 04:22:40;;;;;;;4.45;2.78;;;11.60;99.90;;;;;;5052583;28;20426;-74
2023/11/16 04:25:22;;;;;;;4.90;3.03;;;11.60;99.90;;;;;;5056994;28;20794;-74
2023/11/16 04:28:00;;;;;;;5.47;2.73;;;11.60;99.90;;;;;;5056895;28;20478;-74
2023/11/16 04:30:32;;;;;;;4.90;2.57;;;11.60;99.90;;;;;;5053365;28;21201;-74
2023/11/16 04:33:06;;;;;;;5.93;3.13;;;11.60;99.90;;;;;;5029662;28;20798;-74
2023/11/16 04:35:33;;;;;;;4.90;3.17;;;11.60;99.90;;;;;;5058908;28;20902;-74
2023/11/16 04:38:03;;;;;;;4.77;2.70;;;11.60;99.90;;;;;;5052538;28;20479;-74
2023/11/16 04:40:29;;;;;;;4.70;2.87;;;11.60;99.90;;;;;;5055943;28;20426;-74
2023/11/16 04:42:58;;;;;;;7.13;3.40;;;11.50;99.90;;;;;;5058070;28;20426;-74
2023/11/16 04:45:27;;;;;;;4.03;3.50;;;11.50;99.90;;;;;;5055781;28;20443;-74
2023/11/16 04:47:58;;;;;;;6.47;2.90;;;11.50;99.90;;;;;;5040306;28;20978;-74
2023/11/16 04:50:31;;;;;;;5.85;2.95;;;11.50;99.90;;;;;;5058528;28;20483;-74
2023/11/16 04:52:59;;;;;;;3.10;2.60;;;11.60;99.90;;;;;;5048345;28;20707;-74
2023/11/16 04:55:27;;;;;;;5.23;3.03;;;11.60;99.90;;;;;;5032024;28;20514;-74
2023/11/16 04:57:56;;;;;;;4.70;2.90;;;11.60;99.90;;;;;;5055821;28;20434;-74
2023/11/16 05:00:24;;;;;;;5.50;3.00;;;11.60;99.90;;;;;;5050990;28;20435;-74
2023/11/16 05:02:50;;;;;;;3.47;2.90;;;11.60;99.90;;;;;;5057738;28;20442;-74
2023/11/16 05:05:16;;;;;;;4.60;2.73;;;11.50;99.90;;;;;;5055969;28;20454;-74
2023/11/16 05:07:42;;;;;;;3.83;3.10;;;11.50;99.90;;;;;;5035926;28;20860;-74
2023/11/16 05:10:11;;;;;;;3.20;2.90;;;11.50;99.90;;;;;;5054618;28;20476;-74
2023/11/16 05:12:40;;;;;;;6.80;2.70;;;11.50;99.90;;;;;;5057862;28;20983;-74
2023/11/16 05:15:07;;;;;;;4.90;3.13;;;11.50;99.90;;;;;;5060769;28;20440;-74
2023/11/16 05:17:34;;;;;;;4.40;3.10;;;11.50;99.90;;;;;;5055536;28;20472;-73
2023/11/16 05:20:00;;;;;;;5.67;3.37;;;11.50;99.90;;;;;;5048372;28;20432;-73
2023/11/16 05:22:26;;;;;;;3.97;2.87;;;11.50;99.90;;;;;;5061937;28;20509;-72
2023/11/16 05:24:52;;;;;;;6.85;3.90;;;11.50;99.90;;;;;;5036253;28;20530;-72
2023/11/16 05:27:20;;;;;;;7.18;3.10;;;11.50;99.90;;;;;;5037572;28;20835;-72
2023/11/16 05:29:46;;;;;;;4.50;2.77;;;11.50;99.90;;;;;;5041095;28;20219;-73
2023/11/16 05:32:12;;;;;;;6.30;3.67;;;11.60;99.90;;;;;;5028824;28;20441;-73
2023/11/16 05:34:41;;;;;;;3.93;2.87;;;11.60;99.90;;;;;;5051420;28;20456;-73
2023/11/16 05:37:07;;;;;;;5.20;3.13;;;11.60;99.90;;;;;;5034133;28;20477;-73
2023/11/16 05:39:33;;;;;;;4.83;3.17;;;11.50;99.90;;;;;;5043597;28;20424;-73
2023/11/16 05:41:59;;;;;;;7.32;3.97;;;11.50;99.90;;;;;;5059940;28;20433;-73
2023/11/16 05:44:25;;;;;;;6.30;3.83;;;11.50;99.90;;;;;;5040394;28;20245;-73
2023/11/16 05:46:52;;;;;;;3.97;3.00;;;11.60;99.90;;;;;;5053110;28;20867;-73
2023/11/16 05:49:18;;;;;;;4.57;2.80;;;11.60;99.90;;;;;;5033958;28;20494;-74
2023/11/16 05:51:47;;;;;;;6.50;3.20;;;11.60;99.90;;;;;;5030130;28;20451;-73
2023/11/16 05:54:14;;;;;;;5.38;3.10;;;11.50;99.90;;;;;;5052694;28;20503;-73
2023/11/16 05:56:45;;;;;;;5.63;3.65;;;11.50;99.90;;;;;;5047429;28;20300;-73
2023/11/16 05:59:14;;;;;;;5.27;3.10;;;11.60;99.90;;;;;;5055341;28;20366;-73
2023/11/16 06:01:44;;;;;;;4.73;2.97;;;11.60;99.90;;;;;;5068281;28;20427;-73
2023/11/16 06:04:11;;;;;;;5.73;3.40;;;11.60;99.90;;;;;;5057661;28;20477;-73
2023/11/16 06:06:38;;;;;;;5.03;2.88;;;11.60;99.90;;;;;;5033559;28;21032;-73
2023/11/16 06:09:05;;;;;;;7.03;3.30;;;11.60;99.90;;;;;;5059911;28;20200;-73
2023/11/16 06:11:31;;;;;;;3.90;2.93;;;11.60;99.90;;;;;;5042269;28;20553;-73
2023/11/16 06:13:59;;;;;;;5.57;3.20;;;11.60;99.90;;;;;;5053625;28;20454;-73
2023/11/16 06:16:26;;;;;;;5.10;3.30;;;11.60;99.90;;;;;;5038397;28;21151;-74
2023/11/16 06:18:57;;;;;;;7.65;3.63;;;11.50;99.90;;;;;;5052772;28;20441;-73
2023/11/16 06:21:26;;;;;;;10.27;3.37;;;11.50;99.90;;;;;;5056424;28;20458;-73
2023/11/16 06:23:54;;;;;;;3.10;2.60;;;11.60;99.90;;;;;;5054903;28;20454;-72
2023/11/16 06:26:20;;;;;;;10.00;3.70;;;11.60;99.90;;;;;;5034704;28;20495;-73
2023/11/16 06:28:46;;;;;;;3.10;2.80;;;11.60;99.90;;;;;;5050662;28;20542;-73
2023/11/16 06:31:12;;;;;;;5.77;2.93;;;11.60;99.90;;;;;;5058080;28;20541;-73
2023/11/16 06:33:38;;;;;;;8.90;3.33;;;11.50;99.90;;;;;;5054177;28;20563;-73
2023/11/16 06:36:04;;;;;;;7.25;3.13;;;11.50;99.90;;;;;;5054395;28;20596;-73
2023/11/16 06:38:30;;;;;;;7.43;3.00;;;11.50;99.90;;;;;;5041307;28;20195;-73
2023/11/16 06:40:57;;;;;;;5.13;2.97;;;11.60;99.90;;;;;;5054810;28;20862;-73
2023/11/16 06:43:25;;;;;;;7.27;3.70;;;11.50;99.90;;;;;;5037049;28;20530;-73
2023/11/16 06:45:51;;;;;;;3.50;2.80;;;11.50;99.90;;;;;;5043066;28;20433;-73
2023/11/16 06:48:17;;;;;;;4.23;2.90;;;11.50;99.90;;;;;;5053915;28;20515;-73
2023/11/16 06:50:45;;;;;;;7.53;2.47;;;11.50;99.90;;;;;;5052015;28;21267;-73
2023/11/16 06:53:11;;;;;;;3.37;3.07;;;11.50;99.90;;;;;;5047830;28;20440;-73
2023/11/16 06:55:48;;;;;;;6.70;2.93;;;11.40;99.90;;;;;;5037625;28;20564;-71
2023/11/16 06:58:16;;;;;;;5.23;3.40;;;11.40;99.90;;;;;;5039888;28;20446;-74
2023/11/16 07:00:43;;;;;;;6.43;3.00;;;11.40;99.90;;;;;;5041660;28;20862;-73
2023/11/16 07:03:10;;;;;;;5.00;2.77;;;11.40;99.90;;;;;;5055156;28;20527;-74
2023/11/16 07:05:36;;;;;;;4.10;2.70;;;11.40;99.90;;;;;;5021772;28;20463;-74
2023/11/16 07:08:02;;;;;;;6.00;2.83;;;11.40;99.90;;;;;;5035666;28;20424;-73
2023/11/16 07:10:31;;;;;;;7.67;3.10;;;11.40;99.90;;;;;;5054056;28;20443;-73
2023/11/16 07:13:03;;;;;;;7.80;2.97;;;11.40;99.90;;;;;;5038059;28;20443;-75
2023/11/16 07:15:32;;;;;;;5.87;3.10;;;11.40;99.90;;;;;;5053168;28;20212;-73
2023/11/16 07:18:04;;;;;;;4.10;3.27;;;11.50;99.90;;;;;;5055463;28;20527;-72
2023/11/16 07:20:35;;;;;;;6.87;3.00;;;11.40;99.90;;;;;;5052329;28;20433;-73
2023/11/16 07:23:06;;;;;;;5.63;3.13;;;11.40;99.90;;;;;;5049139;28;20464;-72
2023/11/16 07:25:34;;;;;;;6.70;3.15;;;11.40;99.90;;;;;;5045356;28;20437;-72
2023/11/16 07:28:04;;;;;;;5.57;2.77;;;11.40;99.90;;;;;;5058095;28;20203;-72
2023/11/16 07:30:35;;;;;;;3.77;2.87;;;11.50;99.90;;;;;;5056140;28;21010;-72
2023/11/16 07:33:04;;;;;;;5.33;2.73;;;11.50;99.90;;;;;;5048143;28;20466;-72
2023/11/16 07:35:30;;;;;;;4.80;2.77;;;11.40;99.90;;;;;;5055541;28;20938;-72
2023/11/16 07:38:00;;;;;;;7.07;3.23;;;11.40;99.90;;;;;;5028671;28;20496;-71
2023/11/16 07:40:29;;;;;;;5.67;3.00;;;11.40;99.90;;;;;;5006561;28;20435;-73
2023/11/16 07:42:56;;;;;;;6.03;2.53;;;11.40;99.90;;;;;;5033883;28;21087;-73
2023/11/16 07:45:26;;;;;;;3.70;2.50;;;11.40;99.90;;;;;;5053741;28;20438;-71
2023/11/16 07:47:59;;;;;;;4.13;2.65;;;11.40;99.90;;;;;;5056888;28;20932;-72
2023/11/16 07:50:35;;;;;;;6.30;3.10;;;11.40;99.90;;;;;;5055370;28;20187;-72
2023/11/16 07:53:08;;;;;;;6.10;3.00;;;11.50;99.90;;;;;;5047515;22;20614;-31
2023/11/16 07:55:35;;;;;;;5.20;3.30;;;11.40;99.90;;;;;;5001642;28;20817;-33
2023/11/16 07:58:05;;;;;;;4.27;2.37;;;11.40;99.90;;;;;;5003081;28;20179;-31
2023/11/16 08:00:44;;;;;;;5.10;2.70;;;11.50;99.90;;;;;;5001376;28;21047;-32
2023/11/16 08:05:58;;;;;;;7.63;3.13;;;11.40;99.90;;;;;;5023410;28;20453;-33
2023/11/16 08:08:24;;;;;;;4.23;2.60;;;11.40;99.90;;;;;;5010164;28;20437;-31
2023/11/16 08:10:58;;;;;;;4.80;2.67;;;11.40;99.90;;;;;;5006012;28;20450;-31
2023/11/16 08:13:24;;;;;;;5.77;2.90;;;11.40;99.90;;;;;;5026450;28;20954;-29
2023/11/16 08:15:56;;;;;;;4.97;3.00;;;11.40;99.90;;;;;;5029841;28;20475;-33
2023/11/16 08:18:24;;;;;;;3.50;2.80;;;11.40;99.90;;;;;;5021492;28;20511;-31
2023/11/16 08:20:50;;;;;;;4.60;2.43;;;11.40;99.90;;;;;;5021436;28;20777;-31
2023/11/16 08:23:18;;;;;;;4.57;3.07;;;11.40;99.90;;;;;;5017999;28;20637;-31
2023/11/16 08:25:46;;;;;;;4.47;2.53;;;11.40;99.90;;;;;;5024604;28;20871;-30
2023/11/16 08:28:19;;;;;;;5.30;2.37;;;11.40;99.90;;;;;;5019107;28;21063;-32
2023/11/16 08:30:46;;;;;;;4.17;2.30;;;11.40;99.90;;;;;;5020529;28;21292;-29
2023/11/16 08:33:14;;;;;;;2.97;2.73;;;11.40;99.90;;;;;;5022054;28;20450;-30
2023/11/16 08:35:43;;;;;;;4.00;2.97;;;11.40;99.90;;;;;;5007263;28;21409;-30
2023/11/16 08:38:14;;;;;;;4.97;2.65;;;11.40;99.90;;;;;;5030911;23;20502;-29
2023/11/16 08:40:43;;;;;;;4.23;2.80;;;11.40;99.90;;;;;;5028780;28;20713;-33
2023/11/16 08:43:12;;;;;;;3.13;2.83;;;11.50;99.90;;;;;;5031069;28;20870;-32
2023/11/16 08:45:39;;;;;;;3.57;2.57;;;11.50;99.90;;;;;;5036655;28;20275;-31
2023/11/16 08:48:07;;;;;;;4.53;2.90;;;11.50;99.90;;;;;;5035705;28;20825;-33
2023/11/16 08:50:37;;;;;;;8.07;3.40;;;11.50;99.90;;;;;;5024954;28;20515;-30
2023/11/16 08:53:07;;;;;;;2.93;2.63;;;11.50;99.90;;;;;;5042726;28;20438;-32
2023/11/16 08:55:33;;;;;;;4.50;2.40;;;11.50;99.90;;;;;;5043971;28;20804;-31
2023/11/16 08:58:02;;;;;;;5.30;2.77;;;11.50;99.90;;;;;;5009262;28;20426;-30
2023/11/16 09:00:28;;;;;;;5.13;3.10;;;11.50;99.90;;;;;;5025883;28;20456;-30
2023/11/16 09:03:07;;;;;;;2.90;2.70;;;11.50;99.90;;;;;;5022941;28;20442;-31
2023/11/16 09:05:37;;;;;;;4.97;2.80;;;11.50;99.90;;;;;;5042836;28;20961;-31
2023/11/16 09:08:04;;;;;;;5.30;3.20;;;11.40;99.90;;;;;;5043042;28;20497;-28
2023/11/16 09:10:36;;;;;;;5.47;2.80;;;11.50;99.90;;;;;;5042271;28;20867;-32
2023/11/16 09:13:07;;;;;;;4.00;2.60;;;11.40;99.90;;;;;;5042404;28;20453;-29
2023/11/16 09:15:34;;;;;;;4.83;2.30;;;11.40;99.90;;;;;;5041088;28;21190;-35
2023/11/16 09:18:00;;;;;;;4.45;2.60;;;11.40;99.90;;;;;;5023501;28;21022;-34
2023/11/16 09:20:29;;;;;;;3.70;2.60;;;11.40;99.90;;;;;;5040526;28;20178;-32
2023/11/16 09:22:57;;;;;;;4.93;2.60;;;11.50;99.90;;;;;;5022483;28;20456;-31
2023/11/16 09:25:25;;;;;;;5.43;3.40;;;11.50;99.90;;;;;;5022749;28;20428;-32
2023/11/16 09:27:54;;;;;;;3.87;2.80;;;11.40;99.90;;;;;;5040937;28;20465;-29
2023/11/16 09:30:27;;;;;;;4.10;2.87;;;11.50;99.90;;;;;;5040227;28;21272;-33
2023/11/16 09:33:03;;;;;;;3.42;2.88;;;11.50;99.90;;;;;;5040650;28;20530;-32
2023/11/16 09:35:38;;;;;;;2.87;2.67;;;11.50;99.90;;;;;;5040579;28;20650;-34
2023/11/16 09:38:10;;;;;;;4.67;3.00;;;11.50;99.90;;;;;;5040198;28;20443;-29
2023/11/16 09:40:41;;;;;;;3.20;2.47;;;11.50;99.90;;;;;;5039649;28;20430;-32
2023/11/16 09:43:28;;;;;;;3.90;2.90;;;11.50;99.90;;;;;;5005636;28;21126;-31
2023/11/16 09:45:54;;;;;;;5.03;3.10;;;11.40;99.90;;;;;;5021205;28;20450;-29
2023/11/16 09:48:24;;;;;;;3.75;2.72;;;11.40;99.90;;;;;;5040380;28;20577;-32
2023/11/16 09:50:55;;;;;;;4.07;2.30;;;11.40;99.90;;;;;;5039943;28;20229;-32
2023/11/16 09:53:27;;;;;;;4.30;2.70;;;11.50;99.90;;;;;;5041585;28;20994;-34
2023/11/16 09:55:58;;;;;;;3.15;2.45;;;11.50;99.90;;;;;;5045669;28;20830;-29
2023/11/16 09:58:25;;;;;;;2.70;2.45;;;11.50;99.90;;;;;;5037463;28;20196;-28
2023/11/16 10:00:56;;;;;;;6.45;3.22;;;11.50;99.90;;;;;;5032266;28;20196;-32
2023/11/16 10:03:38;;;;;;;3.33;2.90;;;11.60;99.90;;;;;;5003957;28;20906;-32
2023/11/16 10:06:06;;;;;;;3.88;2.50;;;11.70;99.90;;;;;;5006390;28;20851;-33
2023/11/16 10:08:33;;;;;;;5.80;2.97;;;11.60;99.90;;;;;;5040963;28;20268;-29
2023/11/16 10:11:07;;;;;;;5.00;2.50;;;11.70;99.90;;;;;;5022571;28;21050;-28
2023/11/16 10:13:37;;;;;;;6.47;2.80;;;11.60;99.90;;;;;;5040736;28;20454;-28
2023/11/16 10:16:09;;;;;;;3.20;2.90;;;11.60;99.90;;;;;;5036025;28;21349;-28
2023/11/16 10:18:37;;;;;;;5.00;2.80;;;11.60;99.90;;;;;;5003848;28;20701;-28
2023/11/16 10:21:06;;;;;;;4.33;3.43;;;11.60;99.90;;;;;;5018252;28;20433;-29
2023/11/16 10:23:33;;;;;;;3.83;3.10;;;11.60;99.90;;;;;;5043772;28;20441;-27
2023/11/16 10:26:03;;;;;;;4.85;2.90;;;11.60;99.90;;;;;;5024864;28;20427;-27
2023/11/16 10:28:30;;;;;;;3.33;3.03;;;11.60;99.90;;;;;;5029096;28;20219;-29
2023/11/16 10:31:00;;;;;;;3.57;2.30;;;11.60;99.90;;;;;;5025364;28;20449;-30
2023/11/16 10:33:28;;;;;;;4.67;3.40;;;11.60;99.90;;;;;;5028558;28;20449;-28
2023/11/16 10:35:57;;;;;;;5.40;3.10;;;11.60;99.90;;;;;;5025918;28;20468;-27
2023/11/16 10:38:27;;;;;;;3.97;2.80;;;11.60;99.90;;;;;;5024835;28;21081;-29
2023/11/16 10:40:54;;;;;;;4.93;3.07;;;11.50;99.90;;;;;;5023013;28;20489;-28
2023/11/16 10:43:28;;;;;;;5.37;2.97;;;11.50;99.90;;;;;;5020413;28;21266;-27
2023/11/16 10:45:56;;;;;;;4.40;2.30;;;11.50;99.90;;;;;;5022448;28;20478;-28
2023/11/16 10:48:25;;;;;;;5.60;3.00;;;11.50;99.90;;;;;;5022844;28;20418;-28
2023/11/16 10:50:55;;;;;;;5.50;2.50;;;11.50;99.90;;;;;;5041698;28;20198;-30
2023/11/16 10:53:23;;;;;;;5.53;2.83;;;11.60;99.90;;;;;;5024590;28;20466;-28
2023/11/16 10:55:51;;;;;;;5.33;2.70;;;11.60;99.90;;;;;;5039944;28;20470;-27
2023/11/16 10:58:25;;;;;;;3.60;2.80;;;11.60;99.90;;;;;;5002468;28;20435;-31
2023/11/16 11:00:52;;;;;;;3.50;2.57;;;11.60;99.90;;;;;;5021312;28;20468;-30
2023/11/16 11:03:21;;;;;;;5.17;2.80;;;11.50;99.90;;;;;;5039195;28;20529;-27
2023/11/16 11:05:53;;;;;;;5.03;3.05;;;11.60;99.90;;;;;;5039284;28;21046;-28
2023/11/16 11:08:21;;;;;;;4.70;3.00;;;11.60;99.90;;;;;;5038543;28;20423;-28
2023/11/16 11:10:52;;;;;;;3.30;2.70;;;11.60;99.90;;;;;;5038484;28;20469;-27
2023/11/16 11:13:27;;;;;;;3.30;2.70;;;11.60;99.90;;;;;;5021088;28;20714;-30
2023/11/16 11:15:55;;;;;;;4.37;2.60;;;11.70;99.90;;;;;;5039068;28;20481;-28
2023/11/16 11:18:26;;;;;;;6.40;2.70;;;11.60;99.90;;;;;;5023116;28;20445;-29
2023/11/16 11:21:04;;;;;;;4.27;2.80;;;11.60;99.90;;;;;;5041869;28;20444;-29
2023/11/16 11:23:31;;;;;;;9.33;3.40;;;11.60;99.90;;;;;;5041388;28;21018;-27
2023/11/16 11:26:03;;;;;;;5.20;3.25;;;11.60;99.90;;;;;;5023868;28;20416;-28
2023/11/16 11:28:30;;;;;;;8.20;2.80;;;11.60;99.90;;;;;;5040552;28;20191;-27
2023/11/16 11:30:59;;;;;;;5.40;2.80;;;11.70;99.90;;;;;;5024745;28;20496;-28
2023/11/16 11:33:41;;;;;;;4.97;2.77;;;11.70;99.90;;;;;;5022168;28;20222;-27
2023/11/16 11:36:16;;;;;;;8.73;3.03;;;11.70;99.90;;;;;;5036967;28;20474;-28
2023/11/16 11:38:53;;;;;;;7.07;3.20;;;11.70;99.90;;;;;;5018262;28;21016;-26
2023/11/16 11:41:24;;;;;;;4.27;2.90;;;11.70;99.90;;;;;;5040521;28;20528;-27
2023/11/16 11:43:50;;;;;;;7.27;3.13;;;11.60;99.90;;;;;;5027869;28;20424;-28
2023/11/16 11:46:19;;;;;;;9.37;3.13;;;11.60;99.90;;;;;;5044504;28;20768;-31
2023/11/16 11:48:48;;;;;;;6.53;2.70;;;11.60;99.90;;;;;;5037896;28;20809;-32
2023/11/16 11:51:20;;;;;;;5.30;3.60;;;11.60;99.90;;;;;;5031848;28;20465;-35
2023/11/16 11:53:46;;;;;;;9.07;3.07;;;11.60;99.90;;;;;;5037094;28;20440;-27
2023/11/16 11:56:14;;;;;;;6.28;3.00;;;11.60;99.90;;;;;;5031113;28;20505;-28
2023/11/16 11:58:46;;;;;;;14.87;3.10;;;11.60;99.90;;;;;;5029195;28;20270;-32
2023/11/16 12:01:12;;;;;;;7.03;2.70;;;11.60;99.90;;;;;;5039813;28;21031;-29
2023/11/16 12:03:51;;;;;;;5.23;2.87;;;11.60;99.90;;;;;;5036651;28;20451;-31
2023/11/16 12:06:20;;;;;;;5.10;3.07;;;11.60;99.90;;;;;;5014663;28;20447;-31
2023/11/16 12:08:49;;;;;;;3.90;2.80;;;11.60;99.90;;;;;;5037666;28;20817;-32
2023/11/16 12:11:20;;;;;;;3.80;2.80;;;11.60;99.90;;;;;;5033627;28;20528;-33
2023/11/16 12:13:46;;;;;;;6.03;3.10;;;11.60;99.90;;;;;;5016279;28;20422;-32
2023/11/16 12:16:15;;;;;;;5.50;3.10;;;11.60;99.90;;;;;;5017035;28;20470;-32
2023/11/16 12:18:46;;;;;;;4.45;2.80;;;11.70;99.90;;;;;;5029685;28;20426;-34
2023/11/16 12:21:13;;;;;;;4.97;3.03;;;11.70;99.90;;;;;;5016626;28;20238;-31
2023/11/16 12:23:50;;;;;;;3.97;2.60;;;11.70;99.90;;;;;;5011884;28;20543;-29
2023/11/16 12:26:28;;;;;;;6.38;3.38;;;11.70;99.90;;;;;;5029376;28;20454;-30
2023/11/16 12:28:55;;;;;;;4.37;2.80;;;11.70;99.90;;;;;;5030593;28;20236;-30
2023/11/16 12:31:22;;;;;;;5.73;2.90;;;11.70;99.90;;;;;;5032557;28;20441;-30
2023/11/16 12:33:49;;;;;;;3.60;2.70;;;11.70;99.90;;;;;;5027916;28;21407;-32
2023/11/16 12:36:20;;;;;;;3.90;2.63;;;11.70;99.90;;;;;;5008755;28;20503;-29
2023/11/16 12:38:48;;;;;;;3.80;3.17;;;11.70;99.90;;;;;;5029462;28;21366;-33
2023/11/16 12:41:16;;;;;;;3.97;2.70;;;11.70;99.90;;;;;;5001754;28;20436;-31
2023/11/16 12:43:43;;;;;;;3.90;3.37;;;11.70;99.90;;;;;;5011061;28;20520;-31
2023/11/16 12:46:11;;;;;;;10.33;3.40;;;11.60;99.90;;;;;;5016697;28;20427;-29
2023/11/16 12:48:38;;;;;;;7.05;2.92;;;11.60;99.90;;;;;;5024979;28;20428;-34
2023/11/16 12:51:06;;;;;;;4.50;3.67;;;11.60;99.90;;;;;;5009890;28;20220;-29
2023/11/16 12:53:38;;;;;;;4.40;2.87;;;11.70;99.90;;;;;;5003446;28;21095;-34
2023/11/16 12:56:06;;;;;;;2.97;2.37;;;11.70;99.90;;;;;;5023178;28;20496;-29